createdAt,value
2023-02-22T00:02:29.053Z,18.47
2023-02-22T00:07:30.713Z,16.50
2023-02-22T00:12:32.246Z,17.50
2023-02-22T00:17:34.205Z,15.90
2023-02-22T00:22:36.057Z,17.00
2023-02-22T00:27:38.655Z,15.10
2023-02-22T00:32:42.910Z,16.73
2023-02-22T00:37:48.037Z,17.50
2023-02-22T00:42:50.034Z,16.93
2023-02-22T00:47:52.362Z,17.17
2023-02-22T00:52:54.674Z,15.43
2023-02-22T00:57:57.147Z,17.03
2023-02-22T01:02:59.063Z,14.30
2023-02-22T01:08:02.692Z,14.47
2023-02-22T01:13:08.711Z,13.77
2023-02-22T01:18:12.720Z,14.13
2023-02-22T01:23:14.958Z,13.50
2023-02-22T01:28:18.603Z,14.07
2023-02-22T01:33:20.169Z,14.50
2023-02-22T01:38:21.836Z,12.73
2023-02-22T01:43:32.380Z,12.90
2023-02-22T01:48:41.837Z,13.07
2023-02-22T01:53:49.638Z,12.40
2023-02-22T01:58:55.872Z,11.87
2023-02-22T02:04:01.399Z,11.80
2023-02-22T02:09:05.924Z,10.80
2023-02-22T02:14:09.244Z,11.07
2023-02-22T02:19:38.591Z,11.27
2023-02-22T02:25:05.235Z,10.17
2023-02-22T02:30:55.581Z,9.60
2023-02-22T02:36:09.064Z,10.23
2023-02-22T02:41:37.190Z,9.90
2023-02-22T02:46:46.114Z,10.60
2023-02-22T02:51:51.596Z,10.07
2023-02-22T02:56:53.236Z,10.13
2023-02-22T03:02:16.171Z,10.07
2023-02-22T03:07:20.713Z,9.53
2023-02-22T03:12:41.546Z,9.70
2023-02-22T03:17:51.199Z,10.00
2023-02-22T03:23:01.361Z,9.13
2023-02-22T03:28:11.836Z,9.40
2023-02-22T03:33:20.396Z,8.87
2023-02-22T03:38:24.534Z,10.47
2023-02-22T03:43:31.186Z,11.10
2023-02-22T03:48:57.287Z,9.20
2023-02-22T03:53:59.302Z,10.20
2023-02-22T03:59:08.248Z,9.37
2023-02-22T04:04:09.862Z,10.37
2023-02-22T04:09:13.161Z,10.17
2023-02-22T04:14:15.583Z,10.97
2023-02-22T04:19:17.435Z,10.97
2023-02-22T04:24:20.384Z,10.23
2023-02-22T04:29:22.755Z,10.33
2023-02-22T04:34:24.544Z,10.23
2023-02-22T04:39:26.218Z,10.43
2023-02-22T04:44:28.237Z,10.13
2023-02-22T04:49:30.762Z,11.90
2023-02-22T04:54:33.690Z,9.70
2023-02-22T04:59:36.308Z,9.50
2023-02-22T05:04:38.935Z,10.00
2023-02-22T05:09:40.539Z,9.70
2023-02-22T05:14:42.281Z,9.50
2023-02-22T05:19:43.914Z,9.60
2023-02-22T05:24:45.622Z,9.77
2023-02-22T05:29:47.221Z,10.63
2023-02-22T05:34:49.483Z,10.30
2023-02-22T05:39:51.138Z,10.73
2023-02-22T05:44:53.333Z,12.30
2023-02-22T05:49:54.890Z,10.67
2023-02-22T05:54:56.582Z,11.27
2023-02-22T05:59:58.471Z,10.87
2023-02-22T06:05:00.164Z,10.40
2023-02-22T06:10:01.914Z,9.60
2023-02-22T06:15:03.747Z,10.07
2023-02-22T06:20:05.660Z,10.97
2023-02-22T06:25:08.477Z,10.70
2023-02-22T06:30:13.356Z,10.97
2023-02-22T06:35:15.746Z,10.20
2023-02-22T06:40:17.534Z,10.70
2023-02-22T06:45:19.248Z,11.20
2023-02-22T06:50:29.488Z,10.93
2023-02-22T06:55:32.800Z,10.37
2023-02-22T07:00:34.358Z,10.60
2023-02-22T07:05:36.085Z,11.20
2023-02-22T07:10:38.380Z,10.97
2023-02-22T07:15:40.053Z,10.33
2023-02-22T07:20:42.187Z,11.20
2023-02-22T07:25:45.451Z,10.30
2023-02-22T07:30:47.118Z,9.93
2023-02-22T07:35:50.425Z,10.27
2023-02-22T07:40:51.991Z,10.60
2023-02-22T07:45:57.750Z,10.00
2023-02-22T07:50:59.362Z,10.77
2023-02-22T07:56:02.628Z,10.30
2023-02-22T08:01:04.711Z,10.30
2023-02-22T08:06:07.377Z,10.80
2023-02-22T08:11:09.927Z,10.53
2023-02-22T08:16:11.728Z,9.77
2023-02-22T08:21:13.317Z,10.50
2023-02-22T08:26:15.744Z,10.27
2023-02-22T08:31:18.773Z,8.87
2023-02-22T08:36:21.225Z,10.03
2023-02-22T08:41:22.791Z,9.37
2023-02-22T08:46:24.381Z,7.87
2023-02-22T08:51:27.783Z,10.10
2023-02-22T08:56:30.367Z,8.97
2023-02-22T09:01:33.674Z,8.70
2023-02-22T09:06:35.620Z,8.80
2023-02-22T09:11:37.392Z,8.33
2023-02-22T09:16:39.186Z,8.93
2023-02-22T09:21:40.820Z,8.50
2023-02-22T09:26:47.244Z,8.30
2023-02-22T09:31:50.233Z,8.37
2023-02-22T09:36:51.934Z,8.70
2023-02-22T09:42:04.325Z,9.10
2023-02-22T09:47:11.123Z,7.70
2023-02-22T09:52:27.464Z,7.83
2023-02-22T09:57:35.358Z,8.37
2023-02-22T10:02:40.158Z,8.47
2023-02-22T10:07:47.973Z,8.97
2023-02-22T10:13:14.060Z,8.43
2023-02-22T10:18:19.341Z,8.70
2023-02-22T10:23:38.812Z,8.20
2023-02-22T10:28:47.842Z,8.10
2023-02-22T10:33:55.601Z,7.43
2023-02-22T10:39:08.103Z,7.50
2023-02-22T10:44:09.927Z,7.20
2023-02-22T10:49:12.945Z,7.50
2023-02-22T10:54:14.423Z,5.60
2023-02-22T10:59:32.843Z,5.43
2023-02-22T11:04:46.818Z,5.33
2023-02-22T11:09:53.620Z,5.00
2023-02-22T11:14:55.995Z,4.47
2023-02-22T11:19:58.552Z,4.83
2023-02-22T11:25:03.288Z,4.40
2023-02-22T11:30:29.271Z,4.10
2023-02-22T11:35:33.287Z,4.40
2023-02-22T11:40:35.436Z,5.53
2023-02-22T11:45:38.597Z,5.87
2023-02-22T11:51:07.039Z,5.33
2023-02-22T11:56:45.140Z,5.27
2023-02-22T12:01:55.967Z,5.37
2023-02-22T12:07:19.452Z,4.53
2023-02-22T12:12:36.280Z,3.43
2023-02-22T12:18:05.660Z,3.87
2023-02-22T12:23:16.881Z,4.27
2023-02-22T12:28:24.919Z,4.10
2023-02-22T12:33:29.771Z,4.40
2023-02-22T12:38:40.011Z,4.30
2023-02-22T12:43:54.032Z,4.40
2023-02-22T12:49:20.789Z,4.43
2023-02-22T12:54:38.146Z,4.60
2023-02-22T12:59:47.297Z,4.63
2023-02-22T13:04:49.187Z,4.37
2023-02-22T13:10:03.081Z,4.47
2023-02-22T13:15:23.160Z,4.33
2023-02-22T13:20:33.093Z,4.00
2023-02-22T13:25:41.803Z,4.67
2023-02-22T13:30:51.101Z,4.20
2023-02-22T13:36:09.075Z,4.63
2023-02-22T13:41:37.374Z,4.40
2023-02-22T13:47:03.993Z,4.67
2023-02-22T13:52:12.260Z,4.37
2023-02-22T13:57:48.801Z,3.90
2023-02-22T14:03:08.849Z,4.50
2023-02-22T14:08:19.744Z,4.80
2023-02-22T14:13:23.352Z,4.37
2023-02-22T14:18:26.375Z,4.60
2023-02-22T14:23:36.734Z,4.33
2023-02-22T14:28:41.346Z,4.80
2023-02-22T14:33:56.759Z,4.37
2023-02-22T14:39:22.956Z,4.80
2023-02-22T14:44:33.256Z,4.57
2023-02-22T14:49:40.636Z,4.77
2023-02-22T14:55:04.604Z,4.30
2023-02-22T15:00:31.334Z,4.47
2023-02-22T15:05:38.472Z,5.37
2023-02-22T15:10:48.442Z,5.70
2023-02-22T15:16:00.348Z,4.73
2023-02-22T15:21:07.072Z,5.50
2023-02-22T15:26:25.430Z,5.63
2023-02-22T15:31:29.759Z,5.73
2023-02-22T15:36:31.839Z,5.03
2023-02-22T15:41:33.556Z,4.97
2023-02-22T15:46:35.464Z,4.93
2023-02-22T15:51:39.243Z,5.07
2023-02-22T15:56:40.882Z,4.40
2023-02-22T16:01:45.249Z,4.80
2023-02-22T16:06:47.550Z,5.33
2023-02-22T16:11:49.609Z,5.20
2023-02-22T16:17:30.943Z,5.57
2023-02-22T16:22:35.272Z,5.40
2023-02-22T16:27:47.287Z,4.73
2023-02-22T16:32:49.765Z,4.87
2023-02-22T16:37:55.223Z,5.63
2023-02-22T16:42:57.035Z,6.50
2023-02-22T16:48:04.932Z,5.93
2023-02-22T16:53:06.783Z,6.07
2023-02-22T16:58:09.065Z,6.00
2023-02-22T17:03:20.831Z,6.17
2023-02-22T17:08:22.659Z,5.43
2023-02-22T17:13:27.316Z,5.63
2023-02-22T17:18:33.981Z,7.07
2023-02-22T17:23:35.730Z,5.93
2023-02-22T17:28:37.368Z,5.70
2023-02-22T17:33:39.009Z,5.47
2023-02-22T17:38:41.671Z,8.03
2023-02-22T17:43:43.174Z,6.63
2023-02-22T17:48:45.408Z,6.03
2023-02-22T17:53:48.002Z,7.67
2023-02-22T17:58:55.734Z,6.80
2023-02-22T18:04:02.175Z,8.70
2023-02-22T18:09:10.741Z,10.07
2023-02-22T18:14:13.186Z,6.57
2023-02-22T18:19:20.433Z,6.77
2023-02-22T18:24:23.726Z,5.97
2023-02-22T18:29:25.423Z,6.83
2023-02-22T18:34:28.187Z,7.30
2023-02-22T18:39:33.843Z,6.70
2023-02-22T18:44:35.504Z,9.23
2023-02-22T18:49:37.173Z,9.23
2023-02-22T18:54:40.029Z,9.60
2023-02-22T18:59:42.732Z,9.37
2023-02-22T19:04:44.350Z,8.37
2023-02-22T19:09:47.116Z,8.60
2023-02-22T19:14:48.956Z,6.70
2023-02-22T19:19:50.627Z,7.03
2023-02-22T19:24:54.251Z,7.07
2023-02-22T19:29:59.004Z,7.37
2023-02-22T19:35:06.899Z,7.00
2023-02-22T19:40:10.125Z,7.07
2023-02-22T19:45:11.776Z,7.67
2023-02-22T19:50:18.669Z,7.87
2023-02-22T19:55:21.360Z,7.70
2023-02-22T20:00:25.129Z,7.10
2023-02-22T20:05:26.855Z,6.80
2023-02-22T20:10:28.738Z,7.20
2023-02-22T20:15:30.439Z,7.27
2023-02-22T20:20:33.463Z,7.33
2023-02-22T20:25:35.608Z,7.70
2023-02-22T20:30:37.719Z,8.03
2023-02-22T20:35:39.510Z,7.67
2023-02-22T20:40:44.223Z,8.17
2023-02-22T20:45:46.075Z,8.37
2023-02-22T20:50:47.633Z,7.03
2023-02-22T20:55:53.431Z,7.07
2023-02-22T21:00:55.108Z,8.43
2023-02-22T21:05:56.945Z,7.50
2023-02-22T21:10:59.092Z,7.30
2023-02-22T21:16:01.900Z,8.70
2023-02-22T21:21:10.105Z,7.97
2023-02-22T21:26:15.876Z,8.57
2023-02-22T21:31:18.770Z,7.53
2023-02-22T21:36:25.132Z,8.53
2023-02-22T21:41:29.579Z,8.13
2023-02-22T21:46:31.409Z,9.67
2023-02-22T21:51:34.028Z,8.40
2023-02-22T21:56:41.218Z,9.67
2023-02-22T22:01:49.574Z,10.33
2023-02-22T22:06:52.617Z,10.00
2023-02-22T22:12:06.102Z,10.53
2023-02-22T22:17:09.328Z,10.53
2023-02-22T22:22:10.900Z,10.77
2023-02-22T22:27:12.988Z,9.63
2023-02-22T22:32:16.198Z,10.57
2023-02-22T22:37:18.071Z,11.67
2023-02-22T22:42:19.602Z,11.83
2023-02-22T22:47:21.430Z,11.53
2023-02-22T22:52:24.243Z,13.07
2023-02-22T22:57:26.125Z,14.90
2023-02-22T23:02:30.606Z,14.47
2023-02-22T23:07:32.280Z,15.17
2023-02-22T23:12:33.948Z,14.87
2023-02-22T23:17:42.414Z,13.13
2023-02-22T23:22:47.258Z,12.90
2023-02-22T23:27:49.682Z,14.93
2023-02-22T23:32:51.300Z,12.90
2023-02-22T23:37:57.963Z,11.90
2023-02-22T23:43:04.121Z,12.73
2023-02-22T23:48:06.958Z,12.43
2023-02-22T23:53:15.169Z,12.33
2023-02-22T23:58:16.835Z,12.50
